createdAt,value
2022-11-17T00:01:47.094Z,98567.13
2022-11-17T00:04:16.058Z,98564.44
2022-11-17T00:06:45.513Z,98568.69
2022-11-17T00:09:17.651Z,98570.63
2022-11-17T00:12:05.920Z,98567.19
2022-11-17T00:14:40.529Z,98567.19
2022-11-17T00:17:11.457Z,98577.94
2022-11-17T00:19:58.171Z,98579.84
2022-11-17T00:22:26.324Z,98584.13
2022-11-17T00:24:54.143Z,98578.75
2022-11-17T00:27:21.559Z,98573.00
2022-11-17T00:29:49.839Z,98577.19
2022-11-17T00:32:38.111Z,98562.59
2022-11-17T00:35:06.854Z,98576.81
2022-11-17T00:37:38.791Z,98571.03
2022-11-17T00:40:07.380Z,98575.66
2022-11-17T00:42:34.757Z,98581.44
2022-11-17T00:45:02.500Z,98587.22
2022-11-17T00:47:29.934Z,98596.84
2022-11-17T00:49:57.677Z,98583.81
2022-11-17T00:52:25.075Z,98593.09
2022-11-17T00:54:52.837Z,98605.00
2022-11-17T00:57:20.283Z,98608.47
2022-11-17T00:59:48.020Z,98610.06
2022-11-17T01:02:15.531Z,98605.47
2022-11-17T01:04:43.454Z,98607.78
2022-11-17T01:07:10.905Z,98610.53
2022-11-17T01:09:38.709Z,98609.34
2022-11-17T01:12:06.499Z,98609.72
2022-11-17T01:14:34.409Z,98602.81
2022-11-17T01:17:01.856Z,98615.91
2022-11-17T01:19:29.689Z,98616.72
2022-11-17T01:21:57.088Z,98619.03
2022-11-17T01:24:24.928Z,98611.34
2022-11-17T01:26:52.509Z,98618.72
2022-11-17T01:29:20.266Z,98619.16
2022-11-17T01:31:51.596Z,98631.47
2022-11-17T01:34:19.549Z,98623.84
2022-11-17T01:37:05.383Z,98626.91
2022-11-17T01:39:33.182Z,98633.84
2022-11-17T01:42:14.097Z,98630.41
2022-11-17T01:45:11.444Z,98634.66
2022-11-17T01:48:00.291Z,98650.00
2022-11-17T01:50:39.127Z,98634.25
2022-11-17T01:53:16.413Z,98636.19
2022-11-17T01:55:59.856Z,98632.34
2022-11-17T01:58:36.571Z,98624.63
2022-11-17T02:01:04.545Z,98628.88
2022-11-17T02:03:34.725Z,98629.28
2022-11-17T02:06:13.680Z,98617.72
2022-11-17T02:08:46.136Z,98616.53
2022-11-17T02:11:18.185Z,98621.50
2022-11-17T02:13:46.290Z,98639.59
2022-11-17T02:16:16.201Z,98645.78
2022-11-17T02:18:45.588Z,98643.88
2022-11-17T02:21:51.995Z,98653.88
2022-11-17T02:24:31.149Z,98664.22
2022-11-17T02:27:36.384Z,98661.97
2022-11-17T02:30:12.324Z,98664.69
2022-11-17T02:33:02.609Z,98671.22
2022-11-17T02:35:50.032Z,98683.88
2022-11-17T02:38:43.432Z,98678.88
2022-11-17T02:41:27.874Z,98682.34
2022-11-17T02:44:14.642Z,98686.97
2022-11-17T02:46:58.785Z,98683.91
2022-11-17T02:49:37.002Z,98682.31
2022-11-17T02:52:06.373Z,98682.31
2022-11-17T02:54:34.374Z,98686.16
2022-11-17T02:57:01.975Z,98690.00
2022-11-17T02:59:46.351Z,98698.44
2022-11-17T03:02:44.155Z,98696.53
2022-11-17T03:05:50.038Z,98704.59
2022-11-17T03:08:41.022Z,98701.53
2022-11-17T03:11:10.875Z,98707.66
2022-11-17T03:13:56.697Z,98715.34
2022-11-17T03:16:38.430Z,98708.81
2022-11-17T03:19:24.672Z,98712.63
2022-11-17T03:22:12.592Z,98714.91
2022-11-17T03:24:55.086Z,98712.22
2022-11-17T03:27:30.792Z,98716.09
2022-11-17T03:30:06.374Z,98716.09
2022-11-17T03:32:39.460Z,98719.91
2022-11-17T03:35:18.120Z,98726.81
2022-11-17T03:37:54.805Z,98739.88
2022-11-17T03:40:27.891Z,98731.44
2022-11-17T03:43:02.742Z,98749.06
2022-11-17T03:45:39.904Z,98749.03
2022-11-17T03:48:22.959Z,98740.97
2022-11-17T03:51:09.327Z,98742.84
2022-11-17T03:53:38.207Z,98729.78
2022-11-17T03:56:46.266Z,98732.09
2022-11-17T03:59:30.671Z,98738.22
2022-11-17T04:01:58.883Z,98734.03
2022-11-17T04:04:47.471Z,98727.50
2022-11-17T04:07:41.434Z,98733.22
2022-11-17T04:10:18.460Z,98739.34
2022-11-17T04:13:06.306Z,98739.75
2022-11-17T04:15:52.865Z,98735.13
2022-11-17T04:18:22.841Z,98746.28
2022-11-17T04:20:53.399Z,98737.47
2022-11-17T04:23:21.512Z,98759.69
2022-11-17T04:26:14.303Z,98757.34
2022-11-17T04:28:48.896Z,98757.75
2022-11-17T04:31:24.967Z,98752.75
2022-11-17T04:34:04.421Z,98753.16
2022-11-17T04:36:45.676Z,98745.06
2022-11-17T04:39:15.473Z,98765.38
2022-11-17T04:41:57.571Z,98768.81
2022-11-17T04:44:30.556Z,98765.75
2022-11-17T04:46:59.527Z,98769.63
2022-11-17T04:49:27.217Z,98774.91
2022-11-17T04:51:55.243Z,98782.56
2022-11-17T04:54:24.801Z,98779.56
2022-11-17T04:56:57.553Z,98789.47
2022-11-17T04:59:30.891Z,98787.88
2022-11-17T05:02:04.170Z,98780.56
2022-11-17T05:04:51.970Z,98785.53
2022-11-17T05:07:19.822Z,98783.63
2022-11-17T05:10:06.741Z,98783.97
2022-11-17T05:12:53.238Z,98795.72
2022-11-17T05:15:40.782Z,98775.69
2022-11-17T05:18:08.591Z,98785.63
2022-11-17T05:20:35.999Z,98799.44
2022-11-17T05:23:22.448Z,98795.31
2022-11-17T05:25:54.045Z,98801.78
2022-11-17T05:28:21.866Z,98793.00
2022-11-17T05:30:49.384Z,98792.28
2022-11-17T05:33:17.250Z,98801.16
2022-11-17T05:35:44.665Z,98808.09
2022-11-17T05:38:12.481Z,98811.56
2022-11-17T05:40:39.925Z,98819.25
2022-11-17T05:43:07.678Z,98836.16
2022-11-17T05:45:35.197Z,98840.69
2022-11-17T05:48:03.115Z,98846.88
2022-11-17T05:50:30.504Z,98844.50
2022-11-17T05:53:02.204Z,98844.09
2022-11-17T05:55:29.720Z,98852.91
2022-11-17T05:58:12.193Z,98863.63
2022-11-17T06:00:41.344Z,98858.47
2022-11-17T06:03:23.409Z,98861.09
2022-11-17T06:05:52.664Z,98867.94
2022-11-17T06:08:20.712Z,98845.78
2022-11-17T06:10:48.211Z,98861.16
2022-11-17T06:13:16.043Z,98863.16
2022-11-17T06:15:43.507Z,98873.91
2022-11-17T06:18:17.351Z,98880.06
2022-11-17T06:20:51.833Z,98884.47
2022-11-17T06:23:22.816Z,98892.47
2022-11-17T06:25:50.560Z,98894.00
2022-11-17T06:28:22.143Z,98902.44
2022-11-17T06:30:50.154Z,98895.41
2022-11-17T06:33:19.321Z,98905.00
2022-11-17T06:35:48.149Z,98898.44
2022-11-17T06:38:15.993Z,98903.03
2022-11-17T06:40:43.577Z,98901.22
2022-11-17T06:43:11.605Z,98916.59
2022-11-17T06:45:44.446Z,98926.19
2022-11-17T06:48:16.215Z,98914.38
2022-11-17T06:50:44.561Z,98917.81
2022-11-17T06:53:13.185Z,98915.53
2022-11-17T06:55:41.885Z,98936.28
2022-11-17T06:58:13.052Z,98938.88
2022-11-17T07:00:40.710Z,98940.38
2022-11-17T07:03:10.675Z,98929.16
2022-11-17T07:05:40.257Z,98921.94
2022-11-17T07:08:09.868Z,98939.94
2022-11-17T07:10:38.474Z,98946.78
2022-11-17T07:13:06.387Z,98937.13
2022-11-17T07:15:33.937Z,98953.25
2022-11-17T07:18:01.847Z,98951.34
2022-11-17T07:20:29.416Z,98944.91
2022-11-17T07:23:00.412Z,98949.53
2022-11-17T07:25:28.417Z,98959.91
2022-11-17T07:28:00.063Z,98971.97
2022-11-17T07:30:27.713Z,98959.25
2022-11-17T07:32:55.634Z,98953.50
2022-11-17T07:35:23.121Z,98958.91
2022-11-17T07:37:51.045Z,98952.38
2022-11-17T07:40:18.693Z,98960.88
2022-11-17T07:42:50.112Z,98965.94
2022-11-17T07:45:18.213Z,98972.13
2022-11-17T07:47:52.494Z,98968.34
2022-11-17T07:50:20.270Z,98993.56
2022-11-17T07:52:52.228Z,98975.66
2022-11-17T07:55:20.321Z,98974.59
2022-11-17T07:57:53.930Z,98982.16
2022-11-17T08:00:21.673Z,98978.34
2022-11-17T08:02:49.750Z,98987.53
2022-11-17T08:05:18.362Z,98987.19
2022-11-17T08:07:54.078Z,98986.06
2022-11-17T08:10:22.252Z,98994.13
2022-11-17T08:12:56.123Z,98987.63
2022-11-17T08:15:23.662Z,98983.06
2022-11-17T08:17:57.048Z,98981.50
2022-11-17T08:20:26.830Z,98976.19
2022-11-17T08:22:56.485Z,98977.00
2022-11-17T08:25:26.931Z,98972.72
2022-11-17T08:27:58.656Z,98973.94
2022-11-17T08:30:27.159Z,98966.31
2022-11-17T08:32:55.352Z,98970.88
2022-11-17T08:35:25.476Z,98981.53
2022-11-17T08:37:54.387Z,98980.72
2022-11-17T08:40:22.200Z,98993.69
2022-11-17T08:43:00.923Z,98993.97
2022-11-17T08:45:28.970Z,98989.03
2022-11-17T08:47:57.303Z,98996.06
2022-11-17T08:50:25.843Z,99003.81
2022-11-17T08:52:53.941Z,99000.75
2022-11-17T08:55:21.553Z,98999.28
2022-11-17T08:57:49.449Z,99010.91
2022-11-17T09:00:19.904Z,99013.38
2022-11-17T09:02:47.995Z,99019.63
2022-11-17T09:05:15.569Z,99017.31
2022-11-17T09:07:43.545Z,99021.19
2022-11-17T09:10:11.350Z,99013.56
2022-11-17T09:12:39.219Z,99015.91
2022-11-17T09:15:07.319Z,99021.72
2022-11-17T09:17:35.947Z,99026.72
2022-11-17T09:20:03.561Z,99025.19
2022-11-17T09:22:49.962Z,99024.38
2022-11-17T09:25:17.714Z,99025.09
2022-11-17T09:27:45.520Z,99033.13
2022-11-17T09:30:13.305Z,99024.69
2022-11-17T09:32:41.043Z,99026.63
2022-11-17T09:35:09.501Z,99026.66
2022-11-17T09:37:37.348Z,99029.75
2022-11-17T09:40:05.745Z,99035.13
2022-11-17T09:42:40.206Z,99028.28
2022-11-17T09:45:39.435Z,99012.94
2022-11-17T09:48:40.361Z,99009.13
2022-11-17T09:51:13.858Z,99009.13
2022-11-17T09:54:49.977Z,98996.91
2022-11-17T09:57:54.824Z,99002.31
2022-11-17T10:00:24.367Z,98986.22
2022-11-17T10:02:54.221Z,98988.50
2022-11-17T10:05:40.180Z,98988.47
2022-11-17T10:08:13.198Z,98989.25
2022-11-17T10:10:51.771Z,99001.13
2022-11-17T10:13:36.510Z,98992.31
2022-11-17T10:16:13.311Z,98985.81
2022-11-17T10:18:40.942Z,98979.34
2022-11-17T10:21:09.357Z,98987.75
2022-11-17T10:23:46.876Z,98973.97
2022-11-17T10:26:16.609Z,98967.81
2022-11-17T10:28:44.381Z,98966.66
2022-11-17T10:31:18.825Z,98960.94
2022-11-17T10:33:50.346Z,98966.75
2022-11-17T10:36:30.554Z,98963.75
2022-11-17T10:39:00.527Z,98967.22
2022-11-17T10:41:42.834Z,98963.41
2022-11-17T10:44:23.536Z,98955.06
2022-11-17T10:47:08.067Z,98958.94
2022-11-17T10:49:40.866Z,98957.03
2022-11-17T10:52:19.167Z,98960.47
2022-11-17T10:54:46.810Z,98960.47
2022-11-17T10:57:23.709Z,98966.63
2022-11-17T10:59:57.635Z,98956.59
2022-11-17T11:02:36.804Z,98964.28
2022-11-17T11:05:17.952Z,98962.00
2022-11-17T11:08:33.433Z,98969.66
2022-11-17T11:11:44.152Z,98972.78
2022-11-17T11:14:42.169Z,98972.78
2022-11-17T11:17:14.210Z,98963.53
2022-11-17T11:19:46.006Z,98972.00
2022-11-17T11:22:57.867Z,98959.72
2022-11-17T11:25:41.178Z,98962.41
2022-11-17T11:28:48.101Z,98961.22
2022-11-17T11:31:44.171Z,98964.25
2022-11-17T11:34:44.002Z,98960.41
2022-11-17T11:37:14.457Z,98958.81
2022-11-17T11:40:15.510Z,98974.25
2022-11-17T11:42:58.943Z,98960.81
2022-11-17T11:45:58.901Z,98957.34
2022-11-17T11:48:36.523Z,98958.09
2022-11-17T11:51:35.227Z,98953.91
2022-11-17T11:54:25.877Z,98946.97
2022-11-17T11:56:54.873Z,98951.22
2022-11-17T11:59:50.651Z,98952.72
2022-11-17T12:03:01.876Z,98948.81
2022-11-17T12:05:51.405Z,98950.66
2022-11-17T12:08:45.355Z,98955.47
2022-11-17T12:11:34.911Z,98941.50
2022-11-17T12:14:06.183Z,98959.06
2022-11-17T12:16:36.247Z,98955.41
2022-11-17T12:19:51.065Z,98955.69
2022-11-17T12:22:30.510Z,98958.69
2022-11-17T12:25:33.450Z,98951.88
2022-11-17T12:28:38.311Z,98950.63
2022-11-17T12:31:25.977Z,98943.25
2022-11-17T12:33:53.294Z,98942.38
2022-11-17T12:36:30.409Z,98951.47
2022-11-17T12:39:07.080Z,98944.38
2022-11-17T12:41:49.878Z,98944.56
2022-11-17T12:44:38.622Z,98955.25
2022-11-17T12:47:20.880Z,98953.16
2022-11-17T12:50:35.179Z,98945.81
2022-11-17T12:53:26.615Z,98941.22
2022-11-17T12:56:23.718Z,98944.19
2022-11-17T12:59:24.158Z,98943.31
2022-11-17T13:02:20.783Z,98946.59
2022-11-17T13:05:18.865Z,98956.50
2022-11-17T13:07:46.448Z,98963.19
2022-11-17T13:10:30.641Z,98960.66
2022-11-17T13:13:25.101Z,98962.53
2022-11-17T13:16:00.482Z,98952.16
2022-11-17T13:18:33.681Z,98954.88
2022-11-17T13:21:02.321Z,98949.22
2022-11-17T13:23:33.152Z,98947.94
2022-11-17T13:26:16.423Z,98938.94
2022-11-17T13:28:45.380Z,98941.53
2022-11-17T13:31:23.580Z,98939.41
2022-11-17T13:34:18.687Z,98944.53
2022-11-17T13:37:00.977Z,98952.75
2022-11-17T13:39:29.139Z,98962.16
2022-11-17T13:41:58.074Z,98952.34
2022-11-17T13:44:28.456Z,98955.28
2022-11-17T13:46:56.273Z,98955.59
2022-11-17T13:49:37.770Z,98967.84
2022-11-17T13:52:37.976Z,98966.53
2022-11-17T13:55:15.834Z,98979.06
2022-11-17T13:58:30.954Z,98978.38
2022-11-17T14:01:00.042Z,98982.34
2022-11-17T14:03:36.298Z,98981.66
2022-11-17T14:06:08.038Z,98984.06
2022-11-17T14:08:38.287Z,98981.84
2022-11-17T14:11:24.011Z,98989.59
2022-11-17T14:13:58.705Z,98989.22
2022-11-17T14:16:42.059Z,98993.47
2022-11-17T14:19:15.930Z,98991.94
2022-11-17T14:22:29.276Z,98986.56
2022-11-17T14:24:59.178Z,98978.09
2022-11-17T14:27:32.614Z,98984.66
2022-11-17T14:30:00.699Z,98984.25
2022-11-17T14:32:28.156Z,98989.66
2022-11-17T14:34:56.059Z,98990.03
2022-11-17T14:37:25.125Z,98983.13
2022-11-17T14:39:52.886Z,98980.44
2022-11-17T14:42:20.433Z,98985.84
2022-11-17T14:44:48.207Z,98985.81
2022-11-17T14:47:15.725Z,98979.28
2022-11-17T14:49:43.534Z,98973.91
2022-11-17T14:52:11.047Z,98982.38
2022-11-17T14:54:38.929Z,98992.78
2022-11-17T14:57:06.373Z,98995.44
2022-11-17T14:59:34.249Z,98998.16
2022-11-17T15:02:02.158Z,98991.97
2022-11-17T15:07:17.751Z,98988.13
2022-11-17T15:09:45.675Z,98980.41
2022-11-17T15:12:13.120Z,98991.16
2022-11-17T15:14:40.873Z,98981.91
2022-11-17T15:17:12.920Z,98980.34
2022-11-17T15:19:42.619Z,98974.94
2022-11-17T15:22:12.953Z,98976.47
2022-11-17T15:24:41.232Z,98985.66
2022-11-17T15:27:09.766Z,98992.13
2022-11-17T15:29:37.713Z,98989.44
2022-11-17T15:32:06.041Z,98990.91
2022-11-17T15:34:35.544Z,98983.63
2022-11-17T15:37:03.189Z,98992.06
2022-11-17T15:39:38.580Z,98983.19
2022-11-17T15:42:06.198Z,98975.50
2022-11-17T15:44:34.554Z,98977.03
2022-11-17T15:47:02.065Z,98972.78
2022-11-17T15:49:29.907Z,98981.56
2022-11-17T15:51:57.405Z,98964.69
2022-11-17T15:54:25.277Z,98961.19
2022-11-17T15:56:52.864Z,98967.72
2022-11-17T15:59:20.835Z,98966.16
2022-11-17T16:01:48.611Z,98966.53
2022-11-17T16:04:16.772Z,98973.81
2022-11-17T16:06:47.045Z,98974.56
2022-11-17T16:09:15.870Z,98974.53
2022-11-17T16:11:44.111Z,98973.00
2022-11-17T16:14:12.081Z,98984.53
2022-11-17T16:16:40.002Z,98982.22
2022-11-17T16:19:08.073Z,98986.41
2022-11-17T16:21:35.621Z,98992.94
2022-11-17T16:24:03.788Z,99007.09
2022-11-17T16:26:31.910Z,99002.88
2022-11-17T16:29:04.148Z,99000.94
2022-11-17T16:31:35.071Z,99012.44
2022-11-17T16:34:06.517Z,99014.31
2022-11-17T16:36:37.930Z,99013.56
2022-11-17T16:39:08.903Z,99013.56
2022-11-17T16:41:40.224Z,99013.56
2022-11-17T16:44:14.155Z,99012.78
2022-11-17T16:46:44.577Z,99009.75
2022-11-17T16:49:18.922Z,99011.28
2022-11-17T16:51:52.758Z,99014.31
2022-11-17T16:54:21.479Z,99012.78
2022-11-17T16:56:49.878Z,99017.78
2022-11-17T16:59:18.067Z,99022.75
2022-11-17T17:01:46.252Z,99013.56
2022-11-17T17:04:17.537Z,99010.88
2022-11-17T17:06:45.957Z,99008.19
2022-11-17T17:09:15.659Z,99008.94
2022-11-17T17:11:43.509Z,99012.78
2022-11-17T17:14:14.666Z,99009.75
2022-11-17T17:16:42.930Z,99022.75
2022-11-17T17:19:13.052Z,99020.06
2022-11-17T17:21:41.781Z,99025.44
2022-11-17T17:24:10.821Z,99022.00
2022-11-17T17:26:39.854Z,99019.72
2022-11-17T17:29:08.920Z,99020.47
2022-11-17T17:31:39.844Z,99023.19
2022-11-17T17:34:10.382Z,99015.91
2022-11-17T17:36:38.787Z,99018.22
2022-11-17T17:39:07.055Z,99016.69
2022-11-17T17:41:40.383Z,99021.31
2022-11-17T17:44:13.353Z,99015.19
2022-11-17T17:46:42.867Z,99012.53
2022-11-17T17:49:11.722Z,99016.00
2022-11-17T17:51:44.163Z,99012.16
2022-11-17T17:54:21.448Z,99011.44
2022-11-17T17:56:49.087Z,99012.59
2022-11-17T17:59:17.565Z,99008.41
2022-11-17T18:01:49.387Z,99019.53
2022-11-17T18:04:17.539Z,99025.66
2022-11-17T18:06:52.111Z,99023.75
2022-11-17T18:09:21.025Z,99023.75
2022-11-17T18:11:51.294Z,99018.41
2022-11-17T18:14:25.047Z,99016.84
2022-11-17T18:16:53.866Z,99005.34
2022-11-17T18:19:24.868Z,99006.13
2022-11-17T18:21:56.069Z,99010.72
2022-11-17T18:24:24.049Z,99023.75
2022-11-17T18:26:54.069Z,99018.41
2022-11-17T18:29:22.756Z,99014.53
2022-11-17T18:31:50.660Z,99003.78
2022-11-17T18:34:24.299Z,99001.47
2022-11-17T18:36:55.715Z,99004.16
2022-11-17T18:39:24.586Z,99001.47
2022-11-17T18:41:52.077Z,98993.41
2022-11-17T18:44:20.002Z,98992.28
2022-11-17T18:46:48.074Z,98994.56
2022-11-17T18:49:16.524Z,98992.25
2022-11-17T18:51:44.414Z,98993.78
2022-11-17T18:54:13.076Z,98995.31
2022-11-17T18:56:40.790Z,98999.16
2022-11-17T18:59:11.950Z,99000.72
2022-11-17T19:01:43.343Z,98993.03
2022-11-17T19:04:15.305Z,99002.28
2022-11-17T19:06:42.997Z,98998.44
2022-11-17T19:09:11.520Z,98994.22
2022-11-17T19:11:39.498Z,98992.66
2022-11-17T19:14:08.088Z,98999.19
2022-11-17T19:16:44.477Z,98996.09
2022-11-17T19:19:14.253Z,98979.22
2022-11-17T19:21:42.098Z,98980.34
2022-11-17T19:24:09.943Z,98979.22
2022-11-17T19:26:37.551Z,98971.91
2022-11-17T19:29:15.964Z,98976.91
2022-11-17T19:31:45.215Z,98964.66
2022-11-17T19:34:14.238Z,98964.25
2022-11-17T19:36:42.055Z,98960.84
2022-11-17T19:39:13.042Z,98958.56
2022-11-17T19:41:40.705Z,98966.28
2022-11-17T19:44:09.527Z,98962.81
2022-11-17T19:46:37.804Z,98951.69
2022-11-17T19:49:07.694Z,98954.38
2022-11-17T19:51:37.108Z,98949.03
2022-11-17T19:54:08.507Z,98942.50
2022-11-17T19:56:36.922Z,98938.69
2022-11-17T19:59:06.315Z,98953.28
2022-11-17T20:01:34.602Z,98954.09
2022-11-17T20:04:02.934Z,98944.84
2022-11-17T20:06:37.662Z,98953.31
2022-11-17T20:09:11.808Z,98956.41
2022-11-17T20:11:39.976Z,98957.94
2022-11-17T20:14:08.100Z,98958.31
2022-11-17T20:16:36.899Z,98961.41
2022-11-17T20:19:05.353Z,98960.25
2022-11-17T20:21:33.755Z,98956.44
2022-11-17T20:24:02.334Z,98953.75
2022-11-17T20:26:33.341Z,98957.94
2022-11-17T20:29:02.646Z,98962.56
2022-11-17T20:31:35.008Z,98961.44
2022-11-17T20:34:05.486Z,98950.31
2022-11-17T20:36:34.625Z,98962.56
2022-11-17T20:39:05.020Z,98956.81
2022-11-17T20:41:33.430Z,98950.31
2022-11-17T20:44:03.597Z,98953.75
2022-11-17T20:46:31.382Z,98941.88
2022-11-17T20:48:59.295Z,98944.19
2022-11-17T20:51:27.119Z,98947.66
2022-11-17T20:53:55.214Z,98944.97
2022-11-17T20:56:22.793Z,98935.38
2022-11-17T20:58:53.683Z,98931.16
2022-11-17T21:01:24.066Z,98921.19
2022-11-17T21:03:52.620Z,98930.41
2022-11-17T21:06:24.710Z,98938.84
2022-11-17T21:08:53.179Z,98941.94
2022-11-17T21:11:42.646Z,98942.72
2022-11-17T21:14:13.604Z,98934.28
2022-11-17T21:16:45.651Z,98936.16
2022-11-17T21:19:14.818Z,98937.34
2022-11-17T21:21:44.127Z,98937.34
2022-11-17T21:24:12.833Z,98940.81
2022-11-17T21:26:42.350Z,98940.44
2022-11-17T21:29:10.375Z,98946.56
2022-11-17T21:31:38.830Z,98943.13
2022-11-17T21:34:07.985Z,98931.19
2022-11-17T21:36:36.205Z,98946.91
2022-11-17T21:39:04.843Z,98945.00
2022-11-17T21:41:37.921Z,98951.91
2022-11-17T21:44:05.916Z,98953.44
2022-11-17T21:46:36.347Z,98951.53
2022-11-17T21:49:05.328Z,98943.81
2022-11-17T21:51:35.389Z,98954.16
2022-11-17T21:54:09.455Z,98943.75
2022-11-17T21:56:38.355Z,98940.31
2022-11-17T21:59:12.716Z,98944.88
2022-11-17T22:01:40.618Z,98943.34
2022-11-17T22:04:10.384Z,98947.91
2022-11-17T22:06:39.270Z,98937.97
2022-11-17T22:09:07.652Z,98939.50
2022-11-17T22:11:44.246Z,98947.56
2022-11-17T22:14:25.376Z,98944.13
2022-11-17T22:16:59.729Z,98944.88
2022-11-17T22:19:58.929Z,98947.19
2022-11-17T22:22:42.405Z,98941.06
2022-11-17T22:25:43.492Z,98941.81
2022-11-17T22:28:28.580Z,98941.06
2022-11-17T22:31:33.637Z,98954.91
2022-11-17T22:34:09.593Z,98947.22
2022-11-17T22:36:57.735Z,98948.75
2022-11-17T22:39:35.442Z,98951.06
2022-11-17T22:42:20.990Z,98934.13
2022-11-17T22:44:53.689Z,98944.50
2022-11-17T22:47:21.693Z,98947.94
2022-11-17T22:49:49.302Z,98946.81
2022-11-17T22:52:17.256Z,98940.66
2022-11-17T22:54:44.787Z,98951.03
2022-11-17T22:57:12.694Z,98940.28
2022-11-17T22:59:40.490Z,98940.66
2022-11-17T23:02:08.316Z,98936.81
2022-11-17T23:08:08.204Z,98935.25
2022-11-17T23:10:41.931Z,98931.41
2022-11-17T23:13:11.421Z,98926.78
2022-11-17T23:15:44.035Z,98924.09
2022-11-17T23:18:14.509Z,98926.03
2022-11-17T23:20:43.510Z,98922.16
2022-11-17T23:23:11.953Z,98919.09
2022-11-17T23:25:41.008Z,98915.63
2022-11-17T23:28:10.407Z,98911.75
2022-11-17T23:30:38.598Z,98907.94
2022-11-17T23:33:06.563Z,98905.25
2022-11-17T23:35:34.776Z,98895.63
2022-11-17T23:38:02.770Z,98897.19
2022-11-17T23:40:30.349Z,98890.28
2022-11-17T23:42:58.329Z,98889.88
2022-11-17T23:45:25.935Z,98886.41
2022-11-17T23:47:54.045Z,98884.88
2022-11-17T23:50:21.524Z,98887.16
2022-11-17T23:52:49.346Z,98887.91
2022-11-17T23:55:16.866Z,98883.69
2022-11-17T23:57:44.794Z,98883.69
